sensor_id;sensor_type;location;lat;lon;timestamp;pressure;altitude;pressure_sealevel;temperature;humidity
23574;BME280;11965;53.640;10.050;2023-09-19T00:00:25;100144.03;;;15.57;100.00
23574;BME280;11965;53.640;10.050;2023-09-19T00:02:55;100145.72;;;15.58;100.00
23574;BME280;11965;53.640;10.050;2023-09-19T00:05:26;100134.56;;;15.58;100.00
23574;BME280;11965;53.640;10.050;2023-09-19T00:07:55;100138.84;;;15.49;100.00
23574;BME280;11965;53.640;10.050;2023-09-19T00:10:24;100132.28;;;15.43;100.00
23574;BME280;11965;53.640;10.050;2023-09-19T00:12:55;100139.56;;;15.44;100.00
23574;BME280;11965;53.640;10.050;2023-09-19T00:15:25;100151.22;;;15.41;100.00
23574;BME280;11965;53.640;10.050;2023-09-19T00:17:56;100138.47;;;15.45;100.00
23574;BME280;11965;53.640;10.050;2023-09-19T00:20:23;100137.16;;;15.48;100.00
23574;BME280;11965;53.640;10.050;2023-09-19T00:22:50;100141.72;;;15.42;100.00
23574;BME280;11965;53.640;10.050;2023-09-19T00:25:19;100153.41;;;15.51;100.00
23574;BME280;11965;53.640;10.050;2023-09-19T00:27:47;100157.41;;;15.43;100.00
23574;BME280;11965;53.640;10.050;2023-09-19T00:30:17;100161.06;;;15.43;100.00
23574;BME280;11965;53.640;10.050;2023-09-19T00:32:46;100159.84;;;15.39;100.00
23574;BME280;11965;53.640;10.050;2023-09-19T00:35:18;100147.59;;;15.29;100.00
23574;BME280;11965;53.640;10.050;2023-09-19T00:37:45;100152.06;;;15.41;100.00
23574;BME280;11965;53.640;10.050;2023-09-19T00:40:12;100149.38;;;15.46;100.00
23574;BME280;11965;53.640;10.050;2023-09-19T00:42:41;100155.25;;;15.45;100.00
23574;BME280;11965;53.640;10.050;2023-09-19T00:45:10;100156.94;;;15.34;100.00
23574;BME280;11965;53.640;10.050;2023-09-19T00:47:39;100141.00;;;15.23;100.00
23574;BME280;11965;53.640;10.050;2023-09-19T00:50:08;100141.91;;;15.23;100.00
23574;BME280;11965;53.640;10.050;2023-09-19T00:52:38;100154.97;;;15.23;100.00
23574;BME280;11965;53.640;10.050;2023-09-19T00:55:07;100154.38;;;15.33;100.00
23574;BME280;11965;53.640;10.050;2023-09-19T00:57:38;100150.38;;;15.29;100.00
23574;BME280;11965;53.640;10.050;2023-09-19T01:00:07;100161.19;;;15.37;100.00
23574;BME280;11965;53.640;10.050;2023-09-19T01:02:37;100160.81;;;15.33;100.00
23574;BME280;11965;53.640;10.050;2023-09-19T01:05:05;100171.75;;;15.35;100.00
23574;BME280;11965;53.640;10.050;2023-09-19T01:07:33;100178.28;;;15.52;100.00
23574;BME280;11965;53.640;10.050;2023-09-19T01:10:02;100172.97;;;15.51;100.00
23574;BME280;11965;53.640;10.050;2023-09-19T01:12:45;100167.59;;;15.49;100.00
23574;BME280;11965;53.640;10.050;2023-09-19T01:15:24;100174.28;;;15.48;100.00
23574;BME280;11965;53.640;10.050;2023-09-19T01:18:03;100171.97;;;15.57;100.00
23574;BME280;11965;53.640;10.050;2023-09-19T01:20:41;100181.66;;;15.66;100.00
23574;BME280;11965;53.640;10.050;2023-09-19T01:23:21;100180.38;;;15.45;100.00
23574;BME280;11965;53.640;10.050;2023-09-19T01:26:17;100182.56;;;15.43;100.00
23574;BME280;11965;53.640;10.050;2023-09-19T01:29:01;100187.63;;;15.46;100.00
23574;BME280;11965;53.640;10.050;2023-09-19T01:31:37;100190.91;;;15.31;100.00
23574;BME280;11965;53.640;10.050;2023-09-19T01:34:06;100188.38;;;15.41;100.00
23574;BME280;11965;53.640;10.050;2023-09-19T01:36:37;100176.63;;;15.39;100.00
23574;BME280;11965;53.640;10.050;2023-09-19T01:39:06;100183.75;;;15.47;100.00
23574;BME280;11965;53.640;10.050;2023-09-19T01:41:47;100187.50;;;15.53;100.00
23574;BME280;11965;53.640;10.050;2023-09-19T01:44:27;100189.44;;;15.52;100.00
23574;BME280;11965;53.640;10.050;2023-09-19T01:47:04;100185.81;;;15.52;100.00
23574;BME280;11965;53.640;10.050;2023-09-19T01:49:42;100196.16;;;15.51;100.00
23574;BME280;11965;53.640;10.050;2023-09-19T01:52:12;100190.53;;;15.63;100.00
23574;BME280;11965;53.640;10.050;2023-09-19T01:54:48;100199.28;;;15.55;100.00
23574;BME280;11965;53.640;10.050;2023-09-19T01:57:22;100200.63;;;15.52;100.00
23574;BME280;11965;53.640;10.050;2023-09-19T01:59:59;100211.94;;;15.45;100.00
23574;BME280;11965;53.640;10.050;2023-09-19T02:02:45;100209.00;;;15.40;100.00
23574;BME280;11965;53.640;10.050;2023-09-19T02:05:13;100213.50;;;15.41;100.00
23574;BME280;11965;53.640;10.050;2023-09-19T02:07:49;100205.72;;;15.43;100.00
23574;BME280;11965;53.640;10.050;2023-09-19T02:10:16;100218.81;;;15.31;100.00
23574;BME280;11965;53.640;10.050;2023-09-19T02:12:43;100222.72;;;15.30;100.00
23574;BME280;11965;53.640;10.050;2023-09-19T02:15:13;100215.91;;;15.14;100.00
23574;BME280;11965;53.640;10.050;2023-09-19T02:17:42;100227.06;;;15.14;100.00
23574;BME280;11965;53.640;10.050;2023-09-19T02:20:12;100230.59;;;15.21;100.00
23574;BME280;11965;53.640;10.050;2023-09-19T02:22:40;100236.06;;;15.28;100.00
23574;BME280;11965;53.640;10.050;2023-09-19T02:25:08;100239.22;;;15.20;100.00
23574;BME280;11965;53.640;10.050;2023-09-19T02:27:35;100244.06;;;15.13;100.00
23574;BME280;11965;53.640;10.050;2023-09-19T02:30:04;100228.16;;;15.13;100.00
23574;BME280;11965;53.640;10.050;2023-09-19T02:32:31;100226.44;;;15.00;100.00
23574;BME280;11965;53.640;10.050;2023-09-19T02:35:04;100242.81;;;14.97;100.00
23574;BME280;11965;53.640;10.050;2023-09-19T02:37:32;100226.91;;;14.97;100.00
23574;BME280;11965;53.640;10.050;2023-09-19T02:40:00;100243.88;;;14.96;100.00
23574;BME280;11965;53.640;10.050;2023-09-19T02:42:44;100241.97;;;14.96;100.00
23574;BME280;11965;53.640;10.050;2023-09-19T02:45:15;100241.72;;;14.98;100.00
23574;BME280;11965;53.640;10.050;2023-09-19T02:47:43;100253.25;;;15.01;100.00
23574;BME280;11965;53.640;10.050;2023-09-19T02:50:13;100248.06;;;15.17;100.00
23574;BME280;11965;53.640;10.050;2023-09-19T02:52:42;100244.91;;;15.13;100.00
23574;BME280;11965;53.640;10.050;2023-09-19T02:55:10;100250.38;;;15.20;100.00
23574;BME280;11965;53.640;10.050;2023-09-19T02:57:40;100257.41;;;15.22;100.00
23574;BME280;11965;53.640;10.050;2023-09-19T03:00:09;100247.72;;;15.25;100.00
23574;BME280;11965;53.640;10.050;2023-09-19T03:02:37;100242.75;;;15.27;100.00
23574;BME280;11965;53.640;10.050;2023-09-19T03:05:07;100239.59;;;15.35;100.00
23574;BME280;11965;53.640;10.050;2023-09-19T03:07:38;100236.81;;;15.47;100.00
23574;BME280;11965;53.640;10.050;2023-09-19T03:10:06;100245.56;;;15.51;100.00
23574;BME280;11965;53.640;10.050;2023-09-19T03:12:36;100236.31;;;15.38;100.00
23574;BME280;11965;53.640;10.050;2023-09-19T03:15:06;100250.63;;;15.42;100.00
23574;BME280;11965;53.640;10.050;2023-09-19T03:17:35;100247.03;;;15.53;100.00
23574;BME280;11965;53.640;10.050;2023-09-19T03:20:03;100254.19;;;15.49;100.00
23574;BME280;11965;53.640;10.050;2023-09-19T03:22:34;100257.69;;;15.44;100.00
23574;BME280;11965;53.640;10.050;2023-09-19T03:25:07;100263.28;;;15.68;100.00
23574;BME280;11965;53.640;10.050;2023-09-19T03:27:38;100267.91;;;15.51;100.00
23574;BME280;11965;53.640;10.050;2023-09-19T03:30:07;100267.44;;;15.54;100.00
23574;BME280;11965;53.640;10.050;2023-09-19T03:32:43;100258.31;;;15.46;100.00
23574;BME280;11965;53.640;10.050;2023-09-19T03:35:10;100258.56;;;15.45;100.00
23574;BME280;11965;53.640;10.050;2023-09-19T03:37:40;100263.53;;;15.55;100.00
23574;BME280;11965;53.640;10.050;2023-09-19T03:40:10;100263.28;;;15.44;100.00
23574;BME280;11965;53.640;10.050;2023-09-19T03:42:38;100264.25;;;15.27;100.00
23574;BME280;11965;53.640;10.050;2023-09-19T03:45:06;100267.13;;;15.20;100.00
23574;BME280;11965;53.640;10.050;2023-09-19T03:47:36;100271.97;;;15.13;100.00
23574;BME280;11965;53.640;10.050;2023-09-19T03:50:05;100273.78;;;15.07;100.00
23574;BME280;11965;53.640;10.050;2023-09-19T03:52:34;100279.97;;;15.09;100.00
23574;BME280;11965;53.640;10.050;2023-09-19T03:55:01;100276.03;;;15.29;100.00
23574;BME280;11965;53.640;10.050;2023-09-19T03:57:31;100276.38;;;15.44;100.00
23574;BME280;11965;53.640;10.050;2023-09-19T03:59:58;100284.28;;;15.47;100.00
23574;BME280;11965;53.640;10.050;2023-09-19T04:02:27;100291.41;;;15.31;100.00
23574;BME280;11965;53.640;10.050;2023-09-19T04:05:01;100287.34;;;15.45;100.00
23574;BME280;11965;53.640;10.050;2023-09-19T04:07:29;100295.56;;;15.29;100.00
23574;BME280;11965;53.640;10.050;2023-09-19T04:09:58;100299.56;;;15.21;100.00
23574;BME280;11965;53.640;10.050;2023-09-19T04:12:24;100293.69;;;15.11;100.00
23574;BME280;11965;53.640;10.050;2023-09-19T04:14:55;100311.47;;;14.98;100.00
23574;BME280;11965;53.640;10.050;2023-09-19T04:17:22;100306.16;;;14.96;100.00
23574;BME280;11965;53.640;10.050;2023-09-19T04:19:49;100311.91;;;14.83;100.00
23574;BME280;11965;53.640;10.050;2023-09-19T04:22:16;100307.81;;;14.86;100.00
23574;BME280;11965;53.640;10.050;2023-09-19T04:24:43;100316.72;;;14.76;100.00
23574;BME280;11965;53.640;10.050;2023-09-19T04:27:10;100318.75;;;14.69;100.00
23574;BME280;11965;53.640;10.050;2023-09-19T04:29:38;100322.97;;;14.60;100.00
23574;BME280;11965;53.640;10.050;2023-09-19T04:32:06;100334.25;;;14.46;100.00
23574;BME280;11965;53.640;10.050;2023-09-19T04:34:35;100333.41;;;14.46;100.00
23574;BME280;11965;53.640;10.050;2023-09-19T04:37:03;100343.09;;;14.62;100.00
23574;BME280;11965;53.640;10.050;2023-09-19T04:39:30;100363.13;;;14.52;100.00
23574;BME280;11965;53.640;10.050;2023-09-19T04:41:57;100346.38;;;14.33;100.00
23574;BME280;11965;53.640;10.050;2023-09-19T04:44:25;100360.28;;;14.40;100.00
23574;BME280;11965;53.640;10.050;2023-09-19T04:46:51;100363.81;;;14.29;100.00
23574;BME280;11965;53.640;10.050;2023-09-19T04:49:20;100366.13;;;14.13;100.00
23574;BME280;11965;53.640;10.050;2023-09-19T04:51:47;100361.63;;;14.12;100.00
23574;BME280;11965;53.640;10.050;2023-09-19T04:54:14;100371.41;;;14.22;100.00
23574;BME280;11965;53.640;10.050;2023-09-19T04:56:41;100364.06;;;14.27;100.00
23574;BME280;11965;53.640;10.050;2023-09-19T04:59:08;100361.78;;;14.18;100.00
23574;BME280;11965;53.640;10.050;2023-09-19T05:01:36;100364.25;;;14.07;100.00
23574;BME280;11965;53.640;10.050;2023-09-19T05:04:06;100380.53;;;14.10;100.00
23574;BME280;11965;53.640;10.050;2023-09-19T05:06:34;100377.75;;;14.10;100.00
23574;BME280;11965;53.640;10.050;2023-09-19T05:09:01;100370.94;;;14.25;100.00
23574;BME280;11965;53.640;10.050;2023-09-19T05:11:30;100376.41;;;14.13;100.00
23574;BME280;11965;53.640;10.050;2023-09-19T05:13:57;100373.91;;;14.05;100.00
23574;BME280;11965;53.640;10.050;2023-09-19T05:16:29;100377.41;;;14.00;100.00
23574;BME280;11965;53.640;10.050;2023-09-19T05:18:57;100379.09;;;14.01;100.00
23574;BME280;11965;53.640;10.050;2023-09-19T05:21:23;100392.09;;;14.07;100.00
23574;BME280;11965;53.640;10.050;2023-09-19T05:23:52;100384.03;;;13.99;100.00
23574;BME280;11965;53.640;10.050;2023-09-19T05:26:19;100381.38;;;13.86;100.00
23574;BME280;11965;53.640;10.050;2023-09-19T05:28:46;100391.03;;;13.83;100.00
23574;BME280;11965;53.640;10.050;2023-09-19T05:31:14;100395.41;;;13.73;100.00
23574;BME280;11965;53.640;10.050;2023-09-19T05:33:42;100400.59;;;13.69;100.00
23574;BME280;11965;53.640;10.050;2023-09-19T05:36:09;100395.38;;;13.79;100.00
23574;BME280;11965;53.640;10.050;2023-09-19T05:38:37;100378.66;;;13.79;100.00
23574;BME280;11965;53.640;10.050;2023-09-19T05:41:07;100384.06;;;13.74;100.00
23574;BME280;11965;53.640;10.050;2023-09-19T05:43:34;100385.38;;;13.72;100.00
23574;BME280;11965;53.640;10.050;2023-09-19T05:46:04;100382.13;;;13.75;100.00
23574;BME280;11965;53.640;10.050;2023-09-19T05:48:31;100395.13;;;13.81;100.00
23574;BME280;11965;53.640;10.050;2023-09-19T05:51:01;100402.34;;;13.88;100.00
23574;BME280;11965;53.640;10.050;2023-09-19T05:53:28;100402.53;;;13.93;100.00
23574;BME280;11965;53.640;10.050;2023-09-19T05:55:55;100400.53;;;14.01;100.00
23574;BME280;11965;53.640;10.050;2023-09-19T05:58:23;100402.53;;;13.93;100.00
23574;BME280;11965;53.640;10.050;2023-09-19T06:00:50;100411.06;;;13.99;100.00
23574;BME280;11965;53.640;10.050;2023-09-19T06:03:17;100408.66;;;14.02;100.00
23574;BME280;11965;53.640;10.050;2023-09-19T06:05:46;100407.09;;;14.31;100.00
23574;BME280;11965;53.640;10.050;2023-09-19T06:08:15;100391.22;;;14.57;100.00
23574;BME280;11965;53.640;10.050;2023-09-19T06:10:42;100394.47;;;14.72;100.00
23574;BME280;11965;53.640;10.050;2023-09-19T06:13:09;100403.69;;;14.73;100.00
23574;BME280;11965;53.640;10.050;2023-09-19T06:15:41;100401.50;;;14.75;100.00
23574;BME280;11965;53.640;10.050;2023-09-19T06:18:11;100412.19;;;14.78;100.00
23574;BME280;11965;53.640;10.050;2023-09-19T06:20:40;100412.03;;;14.91;100.00
23574;BME280;11965;53.640;10.050;2023-09-19T06:23:10;100414.22;;;15.19;100.00
23574;BME280;11965;53.640;10.050;2023-09-19T06:25:36;100420.19;;;15.23;100.00
23574;BME280;11965;53.640;10.050;2023-09-19T06:28:03;100417.88;;;15.20;100.00
23574;BME280;11965;53.640;10.050;2023-09-19T06:30:31;100419.91;;;15.13;100.00
23574;BME280;11965;53.640;10.050;2023-09-19T06:33:00;100428.47;;;15.30;100.00
23574;BME280;11965;53.640;10.050;2023-09-19T06:35:32;100429.97;;;15.32;100.00
23574;BME280;11965;53.640;10.050;2023-09-19T06:38:02;100424.31;;;15.51;98.33
23574;BME280;11965;53.640;10.050;2023-09-19T06:40:31;100428.66;;;15.46;97.98
23574;BME280;11965;53.640;10.050;2023-09-19T06:42:58;100431.84;;;15.50;98.53
23574;BME280;11965;53.640;10.050;2023-09-19T06:45:27;100434.44;;;15.33;100.00
23574;BME280;11965;53.640;10.050;2023-09-19T06:47:54;100429.50;;;15.47;98.80
23574;BME280;11965;53.640;10.050;2023-09-19T06:50:24;100436.06;;;15.71;94.94
23574;BME280;11965;53.640;10.050;2023-09-19T06:52:53;100437.16;;;15.70;94.13
23574;BME280;11965;53.640;10.050;2023-09-19T06:55:22;100431.84;;;15.80;95.93
23574;BME280;11965;53.640;10.050;2023-09-19T06:57:51;100430.88;;;15.75;95.57
23574;BME280;11965;53.640;10.050;2023-09-19T07:00:20;100445.47;;;16.00;92.77
23574;BME280;11965;53.640;10.050;2023-09-19T07:02:56;100442.69;;;15.88;94.48
23574;BME280;11965;53.640;10.050;2023-09-19T07:05:26;100456.72;;;15.70;94.28
23574;BME280;11965;53.640;10.050;2023-09-19T07:07:56;100461.91;;;15.66;96.69
23574;BME280;11965;53.640;10.050;2023-09-19T07:10:24;100460.16;;;15.84;94.71
23574;BME280;11965;53.640;10.050;2023-09-19T07:12:56;100463.22;;;16.06;95.31
23574;BME280;11965;53.640;10.050;2023-09-19T07:15:24;100457.50;;;16.01;93.02
23574;BME280;11965;53.640;10.050;2023-09-19T07:17:51;100468.69;;;16.01;96.89
23574;BME280;11965;53.640;10.050;2023-09-19T07:20:19;100475.88;;;16.08;97.27
23574;BME280;11965;53.640;10.050;2023-09-19T07:22:47;100473.44;;;16.00;95.63
23574;BME280;11965;53.640;10.050;2023-09-19T07:25:16;100470.19;;;16.15;93.53
23574;BME280;11965;53.640;10.050;2023-09-19T07:27:43;100479.78;;;16.19;92.49
23574;BME280;11965;53.640;10.050;2023-09-19T07:30:11;100474.81;;;16.21;95.91
23574;BME280;11965;53.640;10.050;2023-09-19T07:32:38;100473.78;;;16.04;94.73
23574;BME280;11965;53.640;10.050;2023-09-19T07:35:06;100477.59;;;16.09;94.82
23574;BME280;11965;53.640;10.050;2023-09-19T07:37:33;100479.78;;;16.19;93.96
23574;BME280;11965;53.640;10.050;2023-09-19T07:40:03;100484.25;;;16.08;93.25
23574;BME280;11965;53.640;10.050;2023-09-19T07:42:32;100476.59;;;16.04;96.66
23574;BME280;11965;53.640;10.050;2023-09-19T07:45:05;100492.28;;;16.05;93.06
23574;BME280;11965;53.640;10.050;2023-09-19T07:47:33;100498.63;;;16.12;92.94
23574;BME280;11965;53.640;10.050;2023-09-19T07:50:02;100495.56;;;16.02;94.03
23574;BME280;11965;53.640;10.050;2023-09-19T07:52:28;100515.19;;;15.83;94.63
23574;BME280;11965;53.640;10.050;2023-09-19T07:54:55;100508.50;;;15.84;95.30
23574;BME280;11965;53.640;10.050;2023-09-19T07:57:24;100518.63;;;15.67;99.55
23574;BME280;11965;53.640;10.050;2023-09-19T07:59:51;100488.22;;;15.59;98.65
23574;BME280;11965;53.640;10.050;2023-09-19T08:02:18;100507.94;;;15.64;93.06
23574;BME280;11965;53.640;10.050;2023-09-19T08:04:45;100490.72;;;15.49;91.80
23574;BME280;11965;53.640;10.050;2023-09-19T08:07:12;100482.34;;;15.49;93.93
23574;BME280;11965;53.640;10.050;2023-09-19T08:09:40;100497.59;;;15.34;95.58
23574;BME280;11965;53.640;10.050;2023-09-19T08:12:07;100499.09;;;15.49;94.95
23574;BME280;11965;53.640;10.050;2023-09-19T08:14:37;100498.47;;;15.46;96.62
23574;BME280;11965;53.640;10.050;2023-09-19T08:17:07;100505.22;;;15.57;96.85
23574;BME280;11965;53.640;10.050;2023-09-19T08:19:34;100504.44;;;15.68;97.87
23574;BME280;11965;53.640;10.050;2023-09-19T08:22:02;100511.31;;;15.84;96.68
23574;BME280;11965;53.640;10.050;2023-09-19T08:24:30;100504.63;;;15.85;96.39
23574;BME280;11965;53.640;10.050;2023-09-19T08:26:58;100502.50;;;16.11;96.41
23574;BME280;11965;53.640;10.050;2023-09-19T08:29:26;100497.81;;;16.59;90.99
23574;BME280;11965;53.640;10.050;2023-09-19T08:31:57;100500.59;;;16.23;95.60
23574;BME280;11965;53.640;10.050;2023-09-19T08:34:25;100500.94;;;16.15;94.00
23574;BME280;11965;53.640;10.050;2023-09-19T08:36:53;100502.91;;;16.26;96.04
23574;BME280;11965;53.640;10.050;2023-09-19T08:39:21;100504.13;;;16.30;93.99
23574;BME280;11965;53.640;10.050;2023-09-19T08:41:48;100498.66;;;16.35;90.36
23574;BME280;11965;53.640;10.050;2023-09-19T08:44:16;100509.38;;;16.50;92.38
23574;BME280;11965;53.640;10.050;2023-09-19T08:46:45;100499.63;;;16.29;93.07
23574;BME280;11965;53.640;10.050;2023-09-19T08:49:33;100504.75;;;16.44;92.54
23574;BME280;11965;53.640;10.050;2023-09-19T08:52:12;100503.91;;;16.55;91.23
23574;BME280;11965;53.640;10.050;2023-09-19T08:54:47;100499.91;;;16.63;89.59
23574;BME280;11965;53.640;10.050;2023-09-19T08:57:17;100512.56;;;16.77;88.53
23574;BME280;11965;53.640;10.050;2023-09-19T08:59:47;100505.63;;;16.80;88.28
23574;BME280;11965;53.640;10.050;2023-09-19T09:02:16;100507.59;;;16.80;86.47
23574;BME280;11965;53.640;10.050;2023-09-19T09:04:46;100509.25;;;16.57;86.16
23574;BME280;11965;53.640;10.050;2023-09-19T09:07:17;100511.09;;;16.63;86.48
23574;BME280;11965;53.640;10.050;2023-09-19T09:09:45;100516.59;;;16.93;86.24
23574;BME280;11965;53.640;10.050;2023-09-19T09:12:14;100516.19;;;16.90;84.88
23574;BME280;11965;53.640;10.050;2023-09-19T09:14:44;100515.13;;;16.91;84.92
23574;BME280;11965;53.640;10.050;2023-09-19T09:17:12;100529.22;;;17.08;83.10
23574;BME280;11965;53.640;10.050;2023-09-19T09:19:39;100525.84;;;16.82;86.74
23574;BME280;11965;53.640;10.050;2023-09-19T09:22:10;100523.34;;;17.21;83.17
23574;BME280;11965;53.640;10.050;2023-09-19T09:24:38;100527.84;;;17.22;83.38
23574;BME280;11965;53.640;10.050;2023-09-19T09:27:20;100519.75;;;17.49;82.11
23574;BME280;11965;53.640;10.050;2023-09-19T09:29:51;100519.75;;;17.49;87.76
23574;BME280;11965;53.640;10.050;2023-09-19T09:32:22;100524.59;;;17.54;83.52
23574;BME280;11965;53.640;10.050;2023-09-19T09:34:53;100526.13;;;17.73;77.99
23574;BME280;11965;53.640;10.050;2023-09-19T09:37:22;100529.78;;;17.74;79.83
23574;BME280;11965;53.640;10.050;2023-09-19T09:39:51;100526.94;;;17.85;74.63
23574;BME280;11965;53.640;10.050;2023-09-19T09:42:31;100522.97;;;17.81;76.31
23574;BME280;11965;53.640;10.050;2023-09-19T09:45:21;100528.59;;;17.98;72.85
23574;BME280;11965;53.640;10.050;2023-09-19T09:47:54;100534.66;;;18.07;73.56
23574;BME280;11965;53.640;10.050;2023-09-19T09:50:28;100540.22;;;17.78;74.56
23574;BME280;11965;53.640;10.050;2023-09-19T09:53:10;100520.69;;;17.95;74.54
23574;BME280;11965;53.640;10.050;2023-09-19T09:56:03;100532.44;;;18.09;74.44
23574;BME280;11965;53.640;10.050;2023-09-19T09:58:32;100525.47;;;18.12;73.07
23574;BME280;11965;53.640;10.050;2023-09-19T10:01:01;100529.66;;;18.26;74.30
23574;BME280;11965;53.640;10.050;2023-09-19T10:03:36;100532.78;;;18.29;72.46
23574;BME280;11965;53.640;10.050;2023-09-19T10:06:07;100539.81;;;17.98;71.10
23574;BME280;11965;53.640;10.050;2023-09-19T10:09:04;100536.44;;;18.13;72.92
23574;BME280;11965;53.640;10.050;2023-09-19T10:11:44;100536.06;;;18.55;67.63
23574;BME280;11965;53.640;10.050;2023-09-19T10:14:12;100527.44;;;18.62;70.48
23574;BME280;11965;53.640;10.050;2023-09-19T10:16:46;100527.97;;;18.59;72.60
23574;BME280;11965;53.640;10.050;2023-09-19T10:19:21;100529.00;;;18.36;68.95
23574;BME280;11965;53.640;10.050;2023-09-19T10:21:50;100537.50;;;18.58;68.97
23574;BME280;11965;53.640;10.050;2023-09-19T10:24:22;100537.31;;;18.47;68.46
23574;BME280;11965;53.640;10.050;2023-09-19T10:26:51;100537.88;;;18.78;67.89
23574;BME280;11965;53.640;10.050;2023-09-19T10:29:21;100539.03;;;18.65;66.71
23574;BME280;11965;53.640;10.050;2023-09-19T10:31:52;100534.28;;;18.49;65.70
23574;BME280;11965;53.640;10.050;2023-09-19T10:34:20;100524.22;;;18.36;69.90
23574;BME280;11965;53.640;10.050;2023-09-19T10:36:51;100532.63;;;18.53;63.58
23574;BME280;11965;53.640;10.050;2023-09-19T10:39:23;100524.81;;;18.55;62.93
23574;BME280;11965;53.640;10.050;2023-09-19T10:41:53;100514.53;;;18.94;63.95
23574;BME280;11965;53.640;10.050;2023-09-19T10:44:25;100522.22;;;19.21;60.10
23574;BME280;11965;53.640;10.050;2023-09-19T10:46:54;100528.13;;;19.03;62.58
23574;BME280;11965;53.640;10.050;2023-09-19T10:49:23;100526.13;;;18.81;60.93
23574;BME280;11965;53.640;10.050;2023-09-19T10:51:55;100524.31;;;18.58;63.27
23574;BME280;11965;53.640;10.050;2023-09-19T10:54:31;100519.09;;;19.01;62.41
23574;BME280;11965;53.640;10.050;2023-09-19T10:57:03;100517.91;;;18.96;60.54
23574;BME280;11965;53.640;10.050;2023-09-19T10:59:31;100528.41;;;18.84;63.76
23574;BME280;11965;53.640;10.050;2023-09-19T11:02:16;100549.16;;;18.83;62.89
23574;BME280;11965;53.640;10.050;2023-09-19T11:04:44;100531.09;;;18.28;62.98
23574;BME280;11965;53.640;10.050;2023-09-19T11:07:14;100532.22;;;18.44;62.51
23574;BME280;11965;53.640;10.050;2023-09-19T11:09:47;100549.91;;;18.62;61.91
23574;BME280;11965;53.640;10.050;2023-09-19T11:12:47;100531.22;;;18.84;62.73
23574;BME280;11965;53.640;10.050;2023-09-19T11:21:51;100532.03;;;18.51;63.09
23574;BME280;11965;53.640;10.050;2023-09-19T11:24:30;100529.31;;;18.22;64.71
23574;BME280;11965;53.640;10.050;2023-09-19T11:27:14;100532.72;;;17.67;66.64
23574;BME280;11965;53.640;10.050;2023-09-19T11:29:42;100532.44;;;18.09;67.27
23574;BME280;11965;53.640;10.050;2023-09-19T11:32:10;100535.81;;;18.57;68.44
23574;BME280;11965;53.640;10.050;2023-09-19T11:34:41;100522.00;;;18.72;64.71
23574;BME280;11965;53.640;10.050;2023-09-19T11:40:14;100535.19;;;18.71;63.62
23574;BME280;11965;53.640;10.050;2023-09-19T11:42:44;100526.69;;;18.83;61.48
23574;BME280;11965;53.640;10.050;2023-09-19T11:48:23;100514.16;;;18.91;61.89
23574;BME280;11965;53.640;10.050;2023-09-19T11:50:52;100514.38;;;18.84;65.96
23574;BME280;11965;53.640;10.050;2023-09-19T11:53:21;100523.28;;;18.64;64.32
23574;BME280;11965;53.640;10.050;2023-09-19T11:55:49;100516.94;;;18.35;62.37
23574;BME280;11965;53.640;10.050;2023-09-19T11:58:22;100519.72;;;18.69;64.30
23574;BME280;11965;53.640;10.050;2023-09-19T12:00:54;100539.44;;;18.74;62.67
23574;BME280;11965;53.640;10.050;2023-09-19T12:03:24;100508.06;;;18.60;61.79
23574;BME280;11965;53.640;10.050;2023-09-19T12:05:56;100513.59;;;18.55;63.13
23574;BME280;11965;53.640;10.050;2023-09-19T12:08:23;100534.94;;;18.90;62.26
23574;BME280;11965;53.640;10.050;2023-09-19T12:10:53;100528.41;;;18.84;62.41
23574;BME280;11965;53.640;10.050;2023-09-19T12:13:22;100519.38;;;18.65;60.62
23574;BME280;11965;53.640;10.050;2023-09-19T12:15:49;100515.91;;;18.75;61.15
23574;BME280;11965;53.640;10.050;2023-09-19T12:18:28;100519.47;;;18.70;64.44
23574;BME280;11965;53.640;10.050;2023-09-19T12:20:55;100509.47;;;18.96;62.42
23574;BME280;11965;53.640;10.050;2023-09-19T12:23:25;100516.06;;;18.68;62.09
23574;BME280;11965;53.640;10.050;2023-09-19T12:25:52;100508.94;;;19.16;62.09
23574;BME280;11965;53.640;10.050;2023-09-19T12:28:27;100506.91;;;19.34;61.76
23574;BME280;11965;53.640;10.050;2023-09-19T12:30:55;100510.50;;;19.29;58.26
23574;BME280;11965;53.640;10.050;2023-09-19T12:33:23;100512.41;;;19.24;60.20
23574;BME280;11965;53.640;10.050;2023-09-19T12:35:51;100511.59;;;19.50;60.79
23574;BME280;11965;53.640;10.050;2023-09-19T12:38:24;100503.56;;;19.59;57.10
23574;BME280;11965;53.640;10.050;2023-09-19T12:40:52;100516.97;;;19.74;60.27
23574;BME280;11965;53.640;10.050;2023-09-19T12:43:20;100508.28;;;19.75;58.32
23574;BME280;11965;53.640;10.050;2023-09-19T12:45:49;100513.09;;;19.14;58.55
23574;BME280;11965;53.640;10.050;2023-09-19T12:48:22;100512.94;;;19.42;57.16
23574;BME280;11965;53.640;10.050;2023-09-19T12:51:03;100507.16;;;19.76;55.70
23574;BME280;11965;53.640;10.050;2023-09-19T12:53:32;100507.03;;;19.66;56.55
23574;BME280;11965;53.640;10.050;2023-09-19T12:55:59;100494.69;;;19.67;57.74
23574;BME280;11965;53.640;10.050;2023-09-19T12:58:26;100492.09;;;19.65;61.87
23574;BME280;11965;53.640;10.050;2023-09-19T13:00:57;100491.94;;;19.72;56.63
23574;BME280;11965;53.640;10.050;2023-09-19T13:03:28;100501.00;;;19.57;57.16